createdAt,value
2022-11-06T00:00:23.576Z,5.90
2022-11-06T00:02:25.222Z,5.80
2022-11-06T00:04:29.173Z,5.80
2022-11-06T00:06:49.024Z,5.80
2022-11-06T00:08:50.685Z,5.80
2022-11-06T00:10:52.498Z,5.70
2022-11-06T00:12:54.369Z,5.70
2022-11-06T00:14:55.958Z,5.60
2022-11-06T00:16:57.582Z,5.60
2022-11-06T00:19:02.395Z,5.60
2022-11-06T00:21:30.398Z,5.50
2022-11-06T00:23:32.057Z,5.50
2022-11-06T00:25:33.846Z,5.50
2022-11-06T00:27:36.986Z,5.40
2022-11-06T00:29:39.083Z,5.40
2022-11-06T00:31:40.825Z,5.40
2022-11-06T00:33:42.938Z,5.40
2022-11-06T00:35:44.562Z,5.40
2022-11-06T00:37:47.044Z,5.30
2022-11-06T00:39:48.683Z,5.30
2022-11-06T00:41:50.276Z,5.30
2022-11-06T00:43:58.730Z,5.30
2022-11-06T00:46:01.097Z,5.30
2022-11-06T00:48:02.735Z,5.30
2022-11-06T00:50:04.555Z,5.20
2022-11-06T00:52:06.274Z,5.20
2022-11-06T00:54:10.694Z,5.20
2022-11-06T00:56:16.634Z,5.20
2022-11-06T00:58:18.279Z,5.20
2022-11-06T01:00:20.758Z,5.20
2022-11-06T01:02:22.462Z,5.20
2022-11-06T01:04:24.613Z,5.20
2022-11-06T01:06:31.127Z,5.20
2022-11-06T01:08:32.783Z,5.20
2022-11-06T01:10:36.541Z,5.20
2022-11-06T01:12:38.311Z,5.20
2022-11-06T01:14:40.131Z,5.20
2022-11-06T01:16:42.230Z,5.20
2022-11-06T01:18:44.532Z,5.10
2022-11-06T01:20:46.210Z,5.10
2022-11-06T01:22:47.849Z,5.10
2022-11-06T01:24:49.603Z,5.10
2022-11-06T01:27:19.837Z,5.10
2022-11-06T01:29:14.166Z,5.10
2022-11-06T01:31:18.425Z,5.10
2022-11-06T01:33:20.112Z,5.10
2022-11-06T01:35:21.734Z,5.10
2022-11-06T01:37:23.356Z,5.10
2022-11-06T01:39:24.986Z,5.10
2022-11-06T01:41:28.054Z,5.10
2022-11-06T01:43:46.641Z,5.10
2022-11-06T01:45:49.379Z,5.10
2022-11-06T01:47:51.448Z,5.10
2022-11-06T01:49:54.919Z,5.10
2022-11-06T01:51:58.960Z,5.00
2022-11-06T01:54:02.940Z,5.00
2022-11-06T01:56:05.549Z,5.00
2022-11-06T01:58:09.273Z,5.00
2022-11-06T02:00:11.578Z,5.00
2022-11-06T02:02:15.149Z,4.90
2022-11-06T02:04:22.194Z,4.90
2022-11-06T02:06:24.105Z,4.90
2022-11-06T02:08:25.956Z,4.90
2022-11-06T02:10:28.296Z,4.90
2022-11-06T02:12:45.748Z,4.90
2022-11-06T02:15:01.384Z,4.90
2022-11-06T02:17:07.880Z,4.90
2022-11-06T02:19:09.523Z,4.90
2022-11-06T02:21:23.588Z,4.90
2022-11-06T02:23:37.671Z,4.80
2022-11-06T02:25:42.077Z,4.80
2022-11-06T02:27:50.295Z,4.80
2022-11-06T02:30:01.882Z,4.70
2022-11-06T02:32:08.532Z,4.70
2022-11-06T02:34:11.623Z,4.70
2022-11-06T02:36:16.661Z,4.70
2022-11-06T02:38:22.458Z,4.70
2022-11-06T02:40:26.239Z,4.60
2022-11-06T02:42:29.571Z,4.60
2022-11-06T02:44:32.397Z,4.60
2022-11-06T02:46:54.266Z,4.60
2022-11-06T02:49:07.573Z,4.50
2022-11-06T02:51:11.134Z,4.50
2022-11-06T02:53:14.337Z,4.50
2022-11-06T02:55:21.577Z,4.50
2022-11-06T02:57:23.865Z,4.50
2022-11-06T02:59:27.858Z,4.40
2022-11-06T03:01:32.520Z,4.40
2022-11-06T03:03:36.296Z,4.40
2022-11-06T03:05:45.597Z,4.30
2022-11-06T03:08:10.877Z,4.30
2022-11-06T03:10:13.159Z,4.30
2022-11-06T03:12:34.169Z,4.20
2022-11-06T03:14:40.103Z,4.20
2022-11-06T03:16:44.446Z,4.20
2022-11-06T03:18:54.578Z,4.20
2022-11-06T03:21:07.807Z,4.10
2022-11-06T03:23:22.763Z,4.10
2022-11-06T03:25:28.680Z,4.10
2022-11-06T03:27:35.800Z,4.10
2022-11-06T03:29:41.030Z,4.00
2022-11-06T03:31:53.951Z,4.00
2022-11-06T03:33:58.899Z,4.00
2022-11-06T03:36:03.122Z,4.00
2022-11-06T03:38:10.438Z,4.00
2022-11-06T03:40:14.518Z,3.90
2022-11-06T03:42:19.066Z,3.90
2022-11-06T03:44:22.675Z,3.90
2022-11-06T03:46:26.103Z,3.80
2022-11-06T03:48:35.666Z,3.80
2022-11-06T03:50:39.856Z,3.80
2022-11-06T03:52:49.120Z,3.80
2022-11-06T03:54:58.698Z,3.80
2022-11-06T03:57:03.847Z,3.70
2022-11-06T03:59:07.112Z,3.70
2022-11-06T04:01:10.853Z,3.70
2022-11-06T04:03:38.524Z,3.70
2022-11-06T04:05:48.787Z,3.70
2022-11-06T04:08:11.954Z,3.60
2022-11-06T04:10:32.507Z,3.60
2022-11-06T04:12:54.108Z,3.60
2022-11-06T04:14:56.414Z,3.60
2022-11-06T04:17:00.089Z,3.60
2022-11-06T04:19:02.520Z,3.60
2022-11-06T04:21:25.020Z,3.50
2022-11-06T04:23:38.061Z,3.60
2022-11-06T04:26:14.518Z,3.50
2022-11-06T04:28:22.036Z,3.50
2022-11-06T04:30:24.041Z,3.40
2022-11-06T04:32:28.653Z,3.40
2022-11-06T04:34:38.839Z,3.40
2022-11-06T04:36:44.375Z,3.40
2022-11-06T04:39:11.642Z,3.40
2022-11-06T04:41:34.547Z,3.30
2022-11-06T04:43:56.696Z,3.30
2022-11-06T04:45:59.465Z,3.30
2022-11-06T04:48:01.989Z,3.30
2022-11-06T04:50:05.863Z,3.20
2022-11-06T04:52:09.719Z,3.20
2022-11-06T04:54:12.019Z,3.20
2022-11-06T04:56:17.481Z,3.20
2022-11-06T04:58:21.760Z,3.20
2022-11-06T05:00:23.495Z,3.20
2022-11-06T05:02:25.251Z,3.20
2022-11-06T05:04:26.959Z,3.20
2022-11-06T05:06:30.192Z,3.20
2022-11-06T05:08:32.143Z,3.20
2022-11-06T05:10:33.775Z,3.10
2022-11-06T05:12:35.481Z,3.10
2022-11-06T05:14:37.131Z,3.10
2022-11-06T05:16:38.830Z,3.10
2022-11-06T05:18:40.464Z,3.10
2022-11-06T05:20:42.088Z,3.00
2022-11-06T05:23:00.433Z,3.00
2022-11-06T05:25:02.150Z,3.00
2022-11-06T05:27:03.845Z,3.00
2022-11-06T05:29:05.473Z,3.00
2022-11-06T05:31:07.213Z,3.00
2022-11-06T05:33:08.847Z,3.00
2022-11-06T05:35:10.462Z,2.90
2022-11-06T05:37:12.103Z,2.90
2022-11-06T05:39:13.747Z,2.90
2022-11-06T05:41:15.361Z,2.90
2022-11-06T05:43:17.248Z,2.90
2022-11-06T05:45:18.928Z,2.90
2022-11-06T05:47:20.537Z,2.90
2022-11-06T05:49:22.201Z,2.80
2022-11-06T05:51:23.851Z,2.80
2022-11-06T05:53:25.452Z,2.80
2022-11-06T05:55:27.101Z,2.90
2022-11-06T05:57:28.751Z,2.80
2022-11-06T05:59:30.382Z,2.80
2022-11-06T06:01:32.128Z,2.80
2022-11-06T06:03:33.814Z,3.00
2022-11-06T06:05:35.426Z,2.80
2022-11-06T06:07:37.111Z,2.80
2022-11-06T06:09:38.742Z,2.80
2022-11-06T06:11:40.368Z,2.80
2022-11-06T06:13:42.009Z,2.80
2022-11-06T06:15:43.764Z,2.80
2022-11-06T06:17:48.249Z,2.80
2022-11-06T06:19:49.897Z,2.90
2022-11-06T06:21:51.526Z,2.90
2022-11-06T06:23:53.146Z,2.90
2022-11-06T06:25:56.379Z,3.10
2022-11-06T06:27:58.421Z,3.00
2022-11-06T06:30:00.086Z,3.00
2022-11-06T06:32:01.768Z,3.00
2022-11-06T06:34:03.399Z,3.10
2022-11-06T06:36:06.103Z,3.10
2022-11-06T06:38:07.724Z,3.10
2022-11-06T06:40:10.062Z,3.20
2022-11-06T06:42:11.647Z,3.20
2022-11-06T06:44:13.809Z,3.20
2022-11-06T06:46:15.784Z,3.20
2022-11-06T06:48:17.548Z,3.20
2022-11-06T06:50:19.228Z,3.30
2022-11-06T06:52:20.847Z,3.40
2022-11-06T06:54:22.601Z,3.30
2022-11-06T06:56:24.311Z,3.30
2022-11-06T06:58:26.020Z,3.40
2022-11-06T07:00:28.730Z,3.40
2022-11-06T07:02:30.383Z,3.50
2022-11-06T07:04:32.061Z,3.60
2022-11-06T07:06:33.848Z,3.70
2022-11-06T07:08:35.543Z,3.70
2022-11-06T07:10:37.165Z,3.70
2022-11-06T07:12:38.770Z,3.80
2022-11-06T07:14:40.435Z,3.90
2022-11-06T07:16:42.105Z,3.90
2022-11-06T07:18:43.721Z,4.00
2022-11-06T07:20:45.358Z,4.10
2022-11-06T07:22:47.001Z,4.10
2022-11-06T07:24:48.635Z,4.20
2022-11-06T07:26:50.341Z,4.20
2022-11-06T07:28:51.955Z,4.30
2022-11-06T07:30:57.560Z,4.40
2022-11-06T07:33:02.781Z,4.50
2022-11-06T07:35:06.515Z,4.50
2022-11-06T07:37:08.411Z,4.60
2022-11-06T07:39:10.061Z,4.70
2022-11-06T07:41:12.840Z,4.70
2022-11-06T07:43:14.671Z,4.80
2022-11-06T07:45:16.433Z,4.90
2022-11-06T07:47:18.061Z,5.00
2022-11-06T07:49:19.680Z,5.00
2022-11-06T07:51:21.335Z,5.10
2022-11-06T07:53:23.461Z,5.20
2022-11-06T07:55:25.070Z,5.20
2022-11-06T07:57:26.779Z,5.20
2022-11-06T07:59:28.586Z,5.30
2022-11-06T08:01:30.424Z,5.30
2022-11-06T08:03:32.265Z,5.30
2022-11-06T08:05:33.927Z,5.40
2022-11-06T08:07:35.559Z,5.40
2022-11-06T08:09:37.209Z,5.50
2022-11-06T08:11:38.874Z,5.50
2022-11-06T08:13:40.904Z,5.60
2022-11-06T08:15:43.200Z,5.60
2022-11-06T08:17:44.805Z,5.80
2022-11-06T08:19:46.417Z,5.80
2022-11-06T08:21:48.064Z,5.80
2022-11-06T08:23:49.709Z,5.90
2022-11-06T08:25:58.697Z,5.90
2022-11-06T08:28:01.165Z,6.00
2022-11-06T08:30:02.808Z,6.10
2022-11-06T08:32:04.538Z,6.10
2022-11-06T08:34:06.628Z,6.20
2022-11-06T08:36:08.838Z,6.30
2022-11-06T08:38:10.588Z,6.30
2022-11-06T08:40:12.732Z,6.40
2022-11-06T08:42:14.365Z,6.50
2022-11-06T08:44:16.068Z,6.50
2022-11-06T08:46:17.704Z,6.60
2022-11-06T08:48:19.384Z,6.80
2022-11-06T08:50:21.100Z,6.70
2022-11-06T08:52:22.777Z,6.80
2022-11-06T08:54:24.499Z,6.90
2022-11-06T08:56:26.216Z,6.90
2022-11-06T08:58:27.836Z,7.00
2022-11-06T09:00:29.458Z,7.10
2022-11-06T09:02:32.013Z,7.20
2022-11-06T09:04:38.668Z,7.30
2022-11-06T09:06:42.762Z,7.30
2022-11-06T09:08:44.397Z,7.40
2022-11-06T09:10:46.197Z,7.40
2022-11-06T09:12:47.907Z,7.40
2022-11-06T09:14:49.610Z,7.40
2022-11-06T09:16:51.245Z,7.50
2022-11-06T09:18:55.690Z,7.60
2022-11-06T09:20:57.336Z,7.60
2022-11-06T09:23:03.108Z,7.70
2022-11-06T09:25:05.009Z,7.70
2022-11-06T09:27:06.675Z,7.70
2022-11-06T09:29:08.537Z,7.80
2022-11-06T09:31:10.281Z,7.80
2022-11-06T09:33:13.777Z,7.90
2022-11-06T09:35:15.992Z,7.90
2022-11-06T09:37:17.698Z,8.00
2022-11-06T09:39:19.385Z,8.10
2022-11-06T09:41:43.078Z,8.10
2022-11-06T09:44:14.583Z,8.20
2022-11-06T09:46:08.904Z,8.20
2022-11-06T09:48:10.553Z,8.30
2022-11-06T09:50:14.930Z,8.30
2022-11-06T09:52:22.640Z,8.30
2022-11-06T09:54:33.530Z,8.30
2022-11-06T09:56:37.011Z,8.40
2022-11-06T09:58:40.059Z,8.40
2022-11-06T10:00:42.296Z,8.50
2022-11-06T10:02:49.995Z,8.50
2022-11-06T10:04:55.628Z,8.60
2022-11-06T10:06:57.683Z,8.60
2022-11-06T10:09:03.552Z,8.60
2022-11-06T10:11:14.477Z,8.70
2022-11-06T10:13:17.745Z,8.70
2022-11-06T10:15:24.794Z,8.70
2022-11-06T10:17:29.083Z,8.70
2022-11-06T10:19:53.507Z,8.80
2022-11-06T10:22:10.885Z,8.80
2022-11-06T10:24:21.346Z,8.90
2022-11-06T10:26:43.213Z,9.00
2022-11-06T10:28:44.829Z,9.00
2022-11-06T10:30:55.675Z,9.00
2022-11-06T10:33:13.302Z,9.20
2022-11-06T10:35:23.645Z,9.10
2022-11-06T10:37:31.220Z,9.20
2022-11-06T10:39:33.965Z,9.30
2022-11-06T10:41:37.889Z,9.30
2022-11-06T10:44:06.057Z,9.30
2022-11-06T10:46:26.680Z,9.30
2022-11-06T10:48:37.016Z,9.40
2022-11-06T10:50:48.642Z,9.40
2022-11-06T10:52:56.930Z,9.30
2022-11-06T10:55:04.455Z,9.40
2022-11-06T10:57:09.188Z,9.30
2022-11-06T10:59:10.837Z,9.30
2022-11-06T11:01:13.990Z,9.30
2022-11-06T11:03:24.822Z,9.40
2022-11-06T11:05:27.722Z,9.40
2022-11-06T11:07:31.052Z,9.40
2022-11-06T11:09:33.656Z,9.40
2022-11-06T11:11:35.320Z,9.50
2022-11-06T11:13:36.940Z,9.50
2022-11-06T11:15:45.643Z,9.50
2022-11-06T11:18:05.872Z,9.50
2022-11-06T11:20:36.845Z,9.50
2022-11-06T11:22:38.519Z,9.50
2022-11-06T11:24:57.932Z,9.50
2022-11-06T11:27:04.244Z,9.50
2022-11-06T11:29:14.250Z,9.50
2022-11-06T11:31:18.075Z,9.50
2022-11-06T11:33:21.746Z,9.50
2022-11-06T11:35:27.956Z,9.50
2022-11-06T11:37:30.876Z,9.50
2022-11-06T11:39:36.752Z,9.50
2022-11-06T11:41:38.413Z,9.60
2022-11-06T11:43:41.177Z,9.60
2022-11-06T11:45:42.767Z,9.70
2022-11-06T11:47:46.755Z,9.70
2022-11-06T11:49:48.691Z,9.70
2022-11-06T11:51:50.422Z,9.70
2022-11-06T11:53:54.421Z,9.80
2022-11-06T11:55:56.886Z,9.80
2022-11-06T11:58:01.155Z,9.90
2022-11-06T12:00:05.750Z,9.90
2022-11-06T12:02:23.519Z,10.00
2022-11-06T12:04:47.507Z,10.00
2022-11-06T12:06:50.578Z,10.00
2022-11-06T12:08:53.664Z,10.00
2022-11-06T12:11:00.780Z,10.10
2022-11-06T12:13:04.246Z,10.10
2022-11-06T12:15:08.916Z,10.20
2022-11-06T12:17:16.435Z,10.20
2022-11-06T12:19:20.251Z,10.20
2022-11-06T12:21:21.890Z,10.30
2022-11-06T12:23:29.242Z,10.30
2022-11-06T12:25:33.373Z,10.40
2022-11-06T12:27:38.426Z,10.40
2022-11-06T12:29:43.268Z,10.40
2022-11-06T12:31:44.887Z,10.40
2022-11-06T12:34:05.737Z,10.50
2022-11-06T12:36:09.115Z,10.50
2022-11-06T12:38:13.300Z,10.50
2022-11-06T12:40:22.209Z,10.50
2022-11-06T12:42:28.944Z,10.60
2022-11-06T12:44:30.585Z,10.60
2022-11-06T12:46:44.177Z,10.60
2022-11-06T12:48:57.719Z,10.60
2022-11-06T12:50:59.473Z,10.70
2022-11-06T12:53:13.376Z,10.70
2022-11-06T12:55:33.271Z,10.70
2022-11-06T12:57:34.932Z,10.70
2022-11-06T12:59:55.399Z,10.70
2022-11-06T13:01:57.069Z,10.70
2022-11-06T13:03:58.761Z,10.70
2022-11-06T13:06:03.195Z,10.60
2022-11-06T13:08:04.777Z,10.70
2022-11-06T13:10:12.867Z,10.70
2022-11-06T13:12:46.615Z,10.70
2022-11-06T13:15:07.585Z,10.70
2022-11-06T13:17:14.952Z,10.70
2022-11-06T13:19:22.862Z,10.80
2022-11-06T13:21:56.437Z,10.80
2022-11-06T13:24:12.859Z,10.80
2022-11-06T13:26:27.968Z,10.80
2022-11-06T13:28:29.603Z,10.80
2022-11-06T13:30:31.922Z,10.80
2022-11-06T13:32:34.379Z,10.80
2022-11-06T13:34:37.971Z,10.70
2022-11-06T13:36:39.845Z,10.70
2022-11-06T13:38:44.268Z,10.70
2022-11-06T13:40:48.282Z,10.70
2022-11-06T13:43:01.397Z,10.70
2022-11-06T13:45:03.838Z,10.70
2022-11-06T13:47:12.102Z,10.70
2022-11-06T13:49:19.439Z,10.70
2022-11-06T13:51:25.994Z,10.60
2022-11-06T13:53:27.541Z,10.60
2022-11-06T13:55:29.168Z,10.60
2022-11-06T13:57:50.633Z,10.60
2022-11-06T13:59:58.476Z,10.60
2022-11-06T14:02:09.470Z,10.50
2022-11-06T14:04:17.106Z,10.50
2022-11-06T14:06:20.819Z,10.50
2022-11-06T14:08:25.336Z,10.50
2022-11-06T14:10:34.246Z,10.50
2022-11-06T14:12:35.914Z,10.50
2022-11-06T14:14:37.570Z,10.60
2022-11-06T14:16:43.264Z,10.50
2022-11-06T14:18:53.457Z,10.60
2022-11-06T14:21:13.852Z,10.60
2022-11-06T14:23:30.098Z,10.60
2022-11-06T14:25:32.584Z,10.60
2022-11-06T14:27:37.119Z,10.60
2022-11-06T14:29:38.858Z,10.60
2022-11-06T14:32:00.314Z,10.60
2022-11-06T14:34:02.237Z,10.60
2022-11-06T14:36:12.424Z,10.60
2022-11-06T14:38:29.150Z,10.60
2022-11-06T14:40:31.861Z,10.60
2022-11-06T14:42:35.486Z,10.60
2022-11-06T14:44:42.114Z,10.50
2022-11-06T14:46:50.829Z,10.50
2022-11-06T14:48:54.662Z,10.50
2022-11-06T14:50:56.894Z,10.50
2022-11-06T14:52:58.538Z,10.40
2022-11-06T14:55:05.102Z,10.40
2022-11-06T14:57:15.349Z,10.40
2022-11-06T14:59:20.728Z,10.40
2022-11-06T15:01:27.283Z,10.30
2022-11-06T15:03:35.147Z,10.30
2022-11-06T15:05:42.070Z,10.20
2022-11-06T15:08:04.576Z,10.20
2022-11-06T15:10:09.832Z,10.10
2022-11-06T15:12:11.461Z,10.10
2022-11-06T15:14:16.130Z,10.10
2022-11-06T15:16:17.775Z,10.00
2022-11-06T15:18:22.697Z,10.00
2022-11-06T15:20:26.803Z,9.90
2022-11-06T15:22:32.774Z,9.90
2022-11-06T15:24:37.360Z,9.80
2022-11-06T15:26:45.311Z,9.80
2022-11-06T15:28:49.087Z,9.80
2022-11-06T15:30:52.172Z,9.70
2022-11-06T15:32:54.095Z,9.70
2022-11-06T15:34:58.455Z,9.60
2022-11-06T15:37:08.321Z,9.60
2022-11-06T15:39:28.912Z,9.50
2022-11-06T15:41:30.599Z,9.50
2022-11-06T15:43:36.492Z,9.40
2022-11-06T15:45:38.161Z,9.30
2022-11-06T15:47:39.750Z,9.30
2022-11-06T15:49:41.392Z,9.20
2022-11-06T15:51:50.145Z,9.20
2022-11-06T15:53:51.841Z,9.10
2022-11-06T15:55:56.584Z,9.00
2022-11-06T15:58:16.910Z,8.90
2022-11-06T16:00:23.701Z,8.90
2022-11-06T16:02:25.446Z,8.90
2022-11-06T16:04:27.266Z,8.80
2022-11-06T16:06:29.325Z,8.70
2022-11-06T16:08:32.102Z,8.70
2022-11-06T16:10:35.917Z,8.60
2022-11-06T16:12:37.572Z,8.50
2022-11-06T16:14:40.755Z,8.50
2022-11-06T16:16:47.273Z,8.40
2022-11-06T16:18:49.729Z,8.40
2022-11-06T16:21:07.803Z,8.30
2022-11-06T16:23:12.777Z,8.30
2022-11-06T16:25:19.349Z,8.20
2022-11-06T16:27:22.673Z,8.20
2022-11-06T16:29:26.487Z,8.10
2022-11-06T16:31:29.789Z,8.10
2022-11-06T16:33:31.609Z,8.10
2022-11-06T16:35:36.653Z,8.00
2022-11-06T16:37:38.910Z,7.90
2022-11-06T16:39:53.675Z,7.90
2022-11-06T16:41:58.078Z,7.90
2022-11-06T16:44:19.629Z,7.80
2022-11-06T16:46:21.294Z,7.80
2022-11-06T16:48:24.060Z,7.70
2022-11-06T16:50:44.033Z,7.70
2022-11-06T16:52:52.268Z,7.70
2022-11-06T16:54:57.099Z,7.60
2022-11-06T16:57:09.635Z,7.60
2022-11-06T16:59:15.289Z,7.60
2022-11-06T17:01:20.617Z,7.70
2022-11-06T17:03:23.074Z,7.50
2022-11-06T17:05:34.494Z,7.40
2022-11-06T17:07:36.172Z,7.40
2022-11-06T17:09:37.838Z,7.40
2022-11-06T17:11:39.691Z,7.40
2022-11-06T17:13:42.751Z,7.30
2022-11-06T17:15:48.847Z,7.30
2022-11-06T17:17:50.949Z,7.20
2022-11-06T17:19:52.767Z,7.20
2022-11-06T17:21:54.423Z,7.20
2022-11-06T17:24:07.635Z,7.20
2022-11-06T17:26:20.563Z,7.20
2022-11-06T17:28:22.759Z,7.10
2022-11-06T17:30:24.446Z,7.10
2022-11-06T17:32:26.091Z,7.10
2022-11-06T17:34:27.758Z,7.00
2022-11-06T17:36:30.608Z,7.10
2022-11-06T17:38:32.265Z,6.90
2022-11-06T17:40:33.880Z,7.00
2022-11-06T17:42:35.552Z,7.00
2022-11-06T17:44:37.359Z,6.90
2022-11-06T17:46:40.425Z,6.90
2022-11-06T17:48:42.076Z,6.90
2022-11-06T17:51:02.320Z,6.90
2022-11-06T17:53:04.033Z,6.90
2022-11-06T17:55:06.224Z,6.90
2022-11-06T17:57:08.290Z,6.90
2022-11-06T17:59:10.525Z,6.90
2022-11-06T18:01:12.327Z,6.90
2022-11-06T18:03:21.511Z,6.90
2022-11-06T18:05:23.333Z,6.90
2022-11-06T18:07:24.969Z,6.90
2022-11-06T18:09:26.662Z,6.90
2022-11-06T18:11:28.452Z,6.90
2022-11-06T18:13:30.475Z,6.90
2022-11-06T18:15:35.490Z,6.90
2022-11-06T18:17:37.210Z,6.90
2022-11-06T18:19:39.211Z,6.90
2022-11-06T18:21:40.837Z,6.90
2022-11-06T18:23:42.589Z,6.90
2022-11-06T18:25:44.294Z,6.90
2022-11-06T18:27:46.349Z,6.90
2022-11-06T18:29:48.055Z,6.90
2022-11-06T18:31:49.681Z,6.90
2022-11-06T18:33:51.544Z,6.90
2022-11-06T18:35:53.210Z,6.90
2022-11-06T18:37:54.867Z,6.90
2022-11-06T18:39:56.509Z,6.90
2022-11-06T18:41:59.101Z,6.90
2022-11-06T18:44:01.149Z,6.90
2022-11-06T18:46:10.292Z,6.90
2022-11-06T18:48:14.733Z,6.90
2022-11-06T18:50:18.695Z,7.00
2022-11-06T18:52:44.361Z,7.00
2022-11-06T18:54:41.939Z,7.00
2022-11-06T18:56:43.640Z,7.20
2022-11-06T18:58:45.294Z,7.00
2022-11-06T19:00:46.910Z,7.00
2022-11-06T19:02:48.841Z,7.00
2022-11-06T19:04:50.658Z,7.10
2022-11-06T19:06:52.311Z,7.10
2022-11-06T19:08:53.948Z,7.00
2022-11-06T19:10:55.588Z,7.10
2022-11-06T19:12:59.627Z,7.10
2022-11-06T19:15:01.482Z,7.10
2022-11-06T19:17:03.235Z,7.10
2022-11-06T19:19:06.300Z,7.10
2022-11-06T19:21:10.433Z,7.20
2022-11-06T19:23:13.295Z,7.20
2022-11-06T19:25:15.201Z,7.20
2022-11-06T19:27:16.848Z,7.20
2022-11-06T19:29:18.488Z,7.20
2022-11-06T19:31:21.708Z,7.20
2022-11-06T19:33:23.349Z,7.20
2022-11-06T19:35:24.975Z,7.20
2022-11-06T19:37:27.319Z,7.20
2022-11-06T19:39:29.015Z,7.30
2022-11-06T19:41:30.795Z,7.30
2022-11-06T19:43:36.927Z,7.30
2022-11-06T19:45:38.697Z,7.30
2022-11-06T19:47:40.431Z,7.30
2022-11-06T19:49:42.033Z,7.30
2022-11-06T19:51:43.692Z,7.40
2022-11-06T19:53:45.465Z,7.40
2022-11-06T19:55:47.338Z,7.40
2022-11-06T19:57:49.019Z,7.40
2022-11-06T19:59:50.608Z,7.40
2022-11-06T20:01:52.398Z,7.50
2022-11-06T20:03:54.182Z,7.50
2022-11-06T20:05:56.088Z,7.50
2022-11-06T20:07:57.767Z,7.50
2022-11-06T20:10:02.135Z,7.50
2022-11-06T20:12:04.664Z,7.50
2022-11-06T20:14:06.750Z,7.50
2022-11-06T20:16:09.691Z,7.50
2022-11-06T20:18:11.367Z,7.50
2022-11-06T20:20:13.070Z,7.50
2022-11-06T20:22:14.705Z,7.50
2022-11-06T20:24:16.379Z,7.50
2022-11-06T20:26:18.573Z,7.50
2022-11-06T20:28:20.405Z,7.60
2022-11-06T20:30:22.114Z,7.60
2022-11-06T20:32:23.758Z,7.60
2022-11-06T20:34:25.390Z,7.60
2022-11-06T20:36:28.627Z,7.60
2022-11-06T20:38:30.262Z,7.60
2022-11-06T20:40:34.568Z,7.60
2022-11-06T20:42:36.353Z,7.60
2022-11-06T20:44:38.020Z,7.60
2022-11-06T20:46:39.735Z,7.60
2022-11-06T20:48:42.954Z,7.60
2022-11-06T20:50:44.778Z,7.60
2022-11-06T20:52:47.478Z,7.60
2022-11-06T20:54:49.196Z,7.60
2022-11-06T20:56:51.794Z,7.60
2022-11-06T20:58:54.605Z,7.60
2022-11-06T21:01:06.730Z,7.70
2022-11-06T21:03:08.535Z,7.70
2022-11-06T21:05:10.855Z,7.70
2022-11-06T21:07:12.556Z,7.70
2022-11-06T21:09:16.607Z,7.70
2022-11-06T21:11:19.993Z,7.70
2022-11-06T21:13:21.692Z,7.70
2022-11-06T21:15:23.560Z,7.70
2022-11-06T21:17:25.226Z,7.70
2022-11-06T21:19:26.870Z,7.70
2022-11-06T21:21:29.705Z,7.70
2022-11-06T21:23:31.461Z,7.80
2022-11-06T21:25:33.123Z,7.70
2022-11-06T21:27:34.806Z,7.80
2022-11-06T21:29:36.458Z,7.80
2022-11-06T21:31:44.016Z,7.80
2022-11-06T21:33:50.573Z,7.80
2022-11-06T21:35:52.271Z,7.80
2022-11-06T21:37:53.888Z,7.80
2022-11-06T21:39:55.654Z,7.80
2022-11-06T21:41:57.341Z,7.80
2022-11-06T21:43:59.017Z,7.80
2022-11-06T21:46:01.605Z,7.80
2022-11-06T21:48:07.978Z,7.80
2022-11-06T21:50:28.184Z,7.80
2022-11-06T21:52:49.735Z,7.80
2022-11-06T21:55:09.757Z,7.90
2022-11-06T21:57:11.373Z,7.90
2022-11-06T21:59:13.946Z,8.00
2022-11-06T22:01:15.650Z,8.10
2022-11-06T22:03:17.771Z,8.10
2022-11-06T22:05:19.422Z,8.30
2022-11-06T22:07:21.081Z,8.40
2022-11-06T22:09:25.678Z,8.60
2022-11-06T22:11:32.022Z,8.80
2022-11-06T22:13:33.658Z,8.90
2022-11-06T22:15:35.321Z,9.10
2022-11-06T22:17:36.937Z,9.20
2022-11-06T22:19:38.671Z,9.20
2022-11-06T22:21:40.629Z,9.40
2022-11-06T22:23:42.360Z,9.50
2022-11-06T22:25:43.989Z,9.60
2022-11-06T22:27:45.623Z,9.70
2022-11-06T22:29:47.626Z,9.70
2022-11-06T22:31:49.335Z,9.80
2022-11-06T22:33:53.922Z,9.90
2022-11-06T22:36:06.465Z,9.90
2022-11-06T22:38:10.297Z,10.00
2022-11-06T22:40:12.199Z,10.00
2022-11-06T22:42:13.880Z,10.10
2022-11-06T22:44:16.001Z,10.20
2022-11-06T22:46:19.113Z,10.20
2022-11-06T22:48:21.090Z,10.30
2022-11-06T22:50:22.816Z,10.30
2022-11-06T22:52:24.453Z,10.30
2022-11-06T22:54:26.131Z,10.30
2022-11-06T22:56:28.787Z,10.40
2022-11-06T22:58:30.964Z,10.40
2022-11-06T23:00:32.636Z,10.40
2022-11-06T23:02:35.297Z,10.40
2022-11-06T23:04:36.972Z,10.40
2022-11-06T23:06:38.570Z,10.40
2022-11-06T23:08:44.304Z,10.40
2022-11-06T23:10:48.518Z,10.40
2022-11-06T23:12:50.147Z,10.40
2022-11-06T23:14:51.744Z,10.40
2022-11-06T23:17:00.907Z,10.40
2022-11-06T23:19:02.819Z,10.50
2022-11-06T23:21:11.496Z,10.50
2022-11-06T23:23:13.632Z,10.50
2022-11-06T23:25:15.766Z,10.50
2022-11-06T23:27:17.533Z,10.40
2022-11-06T23:29:19.176Z,10.40
2022-11-06T23:31:20.853Z,10.40
2022-11-06T23:33:22.474Z,10.40
2022-11-06T23:35:28.048Z,10.40
2022-11-06T23:37:33.960Z,10.30
2022-11-06T23:39:35.652Z,10.30
2022-11-06T23:41:43.488Z,10.30
2022-11-06T23:43:45.116Z,10.30
2022-11-06T23:45:49.675Z,10.20
2022-11-06T23:47:51.416Z,10.20
2022-11-06T23:49:53.376Z,10.20
2022-11-06T23:51:55.375Z,10.20
2022-11-06T23:53:57.051Z,10.20
2022-11-06T23:55:58.632Z,10.20
2022-11-06T23:58:00.289Z,10.20
